sensor_id;sensor_type;location;lat;lon;timestamp;temperature;humidity
31729;DHT22;18309;43.658;1.312;2022-08-19T00:01:23;20.10;99.90
31729;DHT22;18309;43.658;1.312;2022-08-19T00:03:49;20.10;99.90
31729;DHT22;18309;43.658;1.312;2022-08-19T00:06:15;20.10;99.90
31729;DHT22;18309;43.658;1.312;2022-08-19T00:08:41;20.00;99.90
31729;DHT22;18309;43.658;1.312;2022-08-19T00:11:07;20.00;99.90
31729;DHT22;18309;43.658;1.312;2022-08-19T00:13:33;19.90;99.90
31729;DHT22;18309;43.658;1.312;2022-08-19T00:15:59;20.00;99.90
31729;DHT22;18309;43.658;1.312;2022-08-19T00:18:25;19.90;99.90
31729;DHT22;18309;43.658;1.312;2022-08-19T00:20:51;19.90;99.90
31729;DHT22;18309;43.658;1.312;2022-08-19T00:23:17;19.80;99.90
31729;DHT22;18309;43.658;1.312;2022-08-19T00:25:43;19.90;99.90
31729;DHT22;18309;43.658;1.312;2022-08-19T00:28:09;19.90;99.90
31729;DHT22;18309;43.658;1.312;2022-08-19T00:30:35;19.80;99.90
31729;DHT22;18309;43.658;1.312;2022-08-19T00:33:00;19.80;99.90
31729;DHT22;18309;43.658;1.312;2022-08-19T00:35:26;19.80;99.90
31729;DHT22;18309;43.658;1.312;2022-08-19T00:37:52;19.80;99.90
31729;DHT22;18309;43.658;1.312;2022-08-19T00:40:19;19.70;99.90
31729;DHT22;18309;43.658;1.312;2022-08-19T00:42:44;19.70;99.90
31729;DHT22;18309;43.658;1.312;2022-08-19T00:45:17;19.70;99.90
31729;DHT22;18309;43.658;1.312;2022-08-19T00:47:44;19.70;99.90
31729;DHT22;18309;43.658;1.312;2022-08-19T00:50:13;19.70;99.90
31729;DHT22;18309;43.658;1.312;2022-08-19T00:52:43;19.80;99.90
31729;DHT22;18309;43.658;1.312;2022-08-19T00:55:14;19.80;99.90
31729;DHT22;18309;43.658;1.312;2022-08-19T00:57:46;19.70;99.90
31729;DHT22;18309;43.658;1.312;2022-08-19T01:00:17;19.70;99.90
31729;DHT22;18309;43.658;1.312;2022-08-19T01:02:43;19.70;99.90
31729;DHT22;18309;43.658;1.312;2022-08-19T01:05:13;19.70;99.90
31729;DHT22;18309;43.658;1.312;2022-08-19T01:07:41;19.70;99.90
31729;DHT22;18309;43.658;1.312;2022-08-19T01:10:14;19.70;99.90
31729;DHT22;18309;43.658;1.312;2022-08-19T01:12:41;19.70;99.90
31729;DHT22;18309;43.658;1.312;2022-08-19T01:15:10;19.60;99.90
31729;DHT22;18309;43.658;1.312;2022-08-19T01:17:38;19.70;99.90
31729;DHT22;18309;43.658;1.312;2022-08-19T01:20:05;19.60;99.90
31729;DHT22;18309;43.658;1.312;2022-08-19T01:25:04;19.70;99.90
31729;DHT22;18309;43.658;1.312;2022-08-19T01:27:44;19.60;99.90
31729;DHT22;18309;43.658;1.312;2022-08-19T01:30:18;19.60;99.90
31729;DHT22;18309;43.658;1.312;2022-08-19T01:32:44;19.60;99.90
31729;DHT22;18309;43.658;1.312;2022-08-19T01:35:11;19.60;99.90
31729;DHT22;18309;43.658;1.312;2022-08-19T01:38:02;19.60;99.90
31729;DHT22;18309;43.658;1.312;2022-08-19T01:40:32;19.50;99.90
31729;DHT22;18309;43.658;1.312;2022-08-19T01:42:59;19.50;99.90
31729;DHT22;18309;43.658;1.312;2022-08-19T01:45:27;19.50;99.90
31729;DHT22;18309;43.658;1.312;2022-08-19T01:47:54;19.50;99.90
31729;DHT22;18309;43.658;1.312;2022-08-19T01:50:20;19.50;99.90
31729;DHT22;18309;43.658;1.312;2022-08-19T01:52:46;19.50;99.90
31729;DHT22;18309;43.658;1.312;2022-08-19T01:55:16;19.40;99.90
31729;DHT22;18309;43.658;1.312;2022-08-19T01:57:45;19.40;99.90
31729;DHT22;18309;43.658;1.312;2022-08-19T02:00:14;19.40;99.90
31729;DHT22;18309;43.658;1.312;2022-08-19T02:02:41;19.40;99.90
31729;DHT22;18309;43.658;1.312;2022-08-19T02:05:08;19.30;99.90
31729;DHT22;18309;43.658;1.312;2022-08-19T02:07:35;19.30;99.90
31729;DHT22;18309;43.658;1.312;2022-08-19T02:10:04;19.30;99.90
31729;DHT22;18309;43.658;1.312;2022-08-19T02:12:30;19.30;99.90
31729;DHT22;18309;43.658;1.312;2022-08-19T02:14:56;19.40;99.90
31729;DHT22;18309;43.658;1.312;2022-08-19T02:17:22;19.30;99.90
31729;DHT22;18309;43.658;1.312;2022-08-19T02:19:47;19.30;99.90
31729;DHT22;18309;43.658;1.312;2022-08-19T02:22:14;19.30;99.90
31729;DHT22;18309;43.658;1.312;2022-08-19T02:24:40;19.40;99.90
31729;DHT22;18309;43.658;1.312;2022-08-19T02:27:06;19.40;99.90
31729;DHT22;18309;43.658;1.312;2022-08-19T02:29:32;19.40;99.90
31729;DHT22;18309;43.658;1.312;2022-08-19T02:31:58;19.30;99.90
31729;DHT22;18309;43.658;1.312;2022-08-19T02:34:23;19.40;99.90
31729;DHT22;18309;43.658;1.312;2022-08-19T02:36:51;19.40;99.90
31729;DHT22;18309;43.658;1.312;2022-08-19T02:39:16;19.40;99.90
31729;DHT22;18309;43.658;1.312;2022-08-19T02:41:42;19.40;99.90
31729;DHT22;18309;43.658;1.312;2022-08-19T02:44:08;19.40;99.90
31729;DHT22;18309;43.658;1.312;2022-08-19T02:46:34;19.40;99.90
31729;DHT22;18309;43.658;1.312;2022-08-19T02:49:03;19.40;99.90
31729;DHT22;18309;43.658;1.312;2022-08-19T02:51:37;19.30;99.90
31729;DHT22;18309;43.658;1.312;2022-08-19T02:54:05;19.30;99.90
31729;DHT22;18309;43.658;1.312;2022-08-19T02:56:32;19.30;99.90
31729;DHT22;18309;43.658;1.312;2022-08-19T02:58:59;19.30;99.90
31729;DHT22;18309;43.658;1.312;2022-08-19T03:01:27;19.30;99.90
31729;DHT22;18309;43.658;1.312;2022-08-19T03:03:54;19.30;99.90
31729;DHT22;18309;43.658;1.312;2022-08-19T03:06:21;19.30;99.90
31729;DHT22;18309;43.658;1.312;2022-08-19T03:08:48;19.30;99.90
31729;DHT22;18309;43.658;1.312;2022-08-19T03:11:29;19.30;99.90
31729;DHT22;18309;43.658;1.312;2022-08-19T03:13:56;19.30;99.90
31729;DHT22;18309;43.658;1.312;2022-08-19T03:16:24;19.30;99.90
31729;DHT22;18309;43.658;1.312;2022-08-19T03:18:51;19.30;99.90
31729;DHT22;18309;43.658;1.312;2022-08-19T03:21:21;19.30;99.90
31729;DHT22;18309;43.658;1.312;2022-08-19T03:23:47;19.20;99.90
31729;DHT22;18309;43.658;1.312;2022-08-19T03:26:13;19.20;99.90
31729;DHT22;18309;43.658;1.312;2022-08-19T03:28:43;19.20;99.90
31729;DHT22;18309;43.658;1.312;2022-08-19T03:31:13;19.20;99.90
31729;DHT22;18309;43.658;1.312;2022-08-19T03:33:40;19.10;99.90
31729;DHT22;18309;43.658;1.312;2022-08-19T03:36:10;19.10;99.90
31729;DHT22;18309;43.658;1.312;2022-08-19T03:38:38;19.10;99.90
31729;DHT22;18309;43.658;1.312;2022-08-19T03:41:07;19.10;99.90
31729;DHT22;18309;43.658;1.312;2022-08-19T03:43:38;19.10;99.90
31729;DHT22;18309;43.658;1.312;2022-08-19T03:46:10;19.00;99.90
31729;DHT22;18309;43.658;1.312;2022-08-19T03:48:38;19.10;99.90
31729;DHT22;18309;43.658;1.312;2022-08-19T03:51:05;19.00;99.90
31729;DHT22;18309;43.658;1.312;2022-08-19T03:53:32;19.00;99.90
31729;DHT22;18309;43.658;1.312;2022-08-19T03:55:59;19.00;99.90
31729;DHT22;18309;43.658;1.312;2022-08-19T03:58:29;19.00;99.90
31729;DHT22;18309;43.658;1.312;2022-08-19T04:00:58;19.00;99.90
31729;DHT22;18309;43.658;1.312;2022-08-19T04:03:24;18.90;99.90
31729;DHT22;18309;43.658;1.312;2022-08-19T04:05:52;18.90;99.90
31729;DHT22;18309;43.658;1.312;2022-08-19T04:08:19;18.90;99.90
31729;DHT22;18309;43.658;1.312;2022-08-19T04:10:48;18.90;99.90
31729;DHT22;18309;43.658;1.312;2022-08-19T04:13:16;18.90;99.90
31729;DHT22;18309;43.658;1.312;2022-08-19T04:15:45;18.90;99.90
31729;DHT22;18309;43.658;1.312;2022-08-19T04:18:11;18.90;99.90
31729;DHT22;18309;43.658;1.312;2022-08-19T04:20:45;18.90;99.90
31729;DHT22;18309;43.658;1.312;2022-08-19T04:23:13;18.90;99.90
31729;DHT22;18309;43.658;1.312;2022-08-19T04:25:42;18.90;99.90
31729;DHT22;18309;43.658;1.312;2022-08-19T04:28:09;18.80;99.90
31729;DHT22;18309;43.658;1.312;2022-08-19T04:30:54;18.90;99.90
31729;DHT22;18309;43.658;1.312;2022-08-19T04:33:23;18.90;99.90
31729;DHT22;18309;43.658;1.312;2022-08-19T04:35:51;18.90;99.90
31729;DHT22;18309;43.658;1.312;2022-08-19T04:38:20;18.90;99.90
31729;DHT22;18309;43.658;1.312;2022-08-19T04:40:49;18.90;99.90
31729;DHT22;18309;43.658;1.312;2022-08-19T04:43:36;18.90;99.90
31729;DHT22;18309;43.658;1.312;2022-08-19T04:46:11;18.90;99.90
31729;DHT22;18309;43.658;1.312;2022-08-19T04:48:38;18.90;99.90
31729;DHT22;18309;43.658;1.312;2022-08-19T04:51:08;18.90;99.90
31729;DHT22;18309;43.658;1.312;2022-08-19T04:53:36;18.90;99.90
31729;DHT22;18309;43.658;1.312;2022-08-19T04:56:11;18.90;99.90
31729;DHT22;18309;43.658;1.312;2022-08-19T04:58:38;18.90;99.90
31729;DHT22;18309;43.658;1.312;2022-08-19T05:01:04;18.80;99.90
31729;DHT22;18309;43.658;1.312;2022-08-19T05:03:30;18.90;99.90
31729;DHT22;18309;43.658;1.312;2022-08-19T05:06:08;18.90;99.90
31729;DHT22;18309;43.658;1.312;2022-08-19T05:08:36;18.90;99.90
31729;DHT22;18309;43.658;1.312;2022-08-19T05:11:10;18.90;99.90
31729;DHT22;18309;43.658;1.312;2022-08-19T05:13:36;18.90;99.90
31729;DHT22;18309;43.658;1.312;2022-08-19T05:16:02;18.80;99.90
31729;DHT22;18309;43.658;1.312;2022-08-19T05:18:28;18.80;99.90
31729;DHT22;18309;43.658;1.312;2022-08-19T05:21:15;18.80;99.90
31729;DHT22;18309;43.658;1.312;2022-08-19T05:23:59;18.80;99.90
31729;DHT22;18309;43.658;1.312;2022-08-19T05:26:26;18.80;99.90
31729;DHT22;18309;43.658;1.312;2022-08-19T05:28:52;18.80;99.90
31729;DHT22;18309;43.658;1.312;2022-08-19T05:31:19;18.80;99.90
31729;DHT22;18309;43.658;1.312;2022-08-19T05:33:45;18.70;99.90
31729;DHT22;18309;43.658;1.312;2022-08-19T05:36:11;18.70;99.90
31729;DHT22;18309;43.658;1.312;2022-08-19T05:38:38;18.70;99.90
31729;DHT22;18309;43.658;1.312;2022-08-19T05:41:08;18.60;99.90
31729;DHT22;18309;43.658;1.312;2022-08-19T05:43:34;18.60;99.90
31729;DHT22;18309;43.658;1.312;2022-08-19T05:45:59;18.60;99.90
31729;DHT22;18309;43.658;1.312;2022-08-19T05:48:25;18.60;99.90
31729;DHT22;18309;43.658;1.312;2022-08-19T05:50:52;18.60;99.90
31729;DHT22;18309;43.658;1.312;2022-08-19T05:53:23;18.60;99.90
31729;DHT22;18309;43.658;1.312;2022-08-19T05:55:49;18.60;99.90
31729;DHT22;18309;43.658;1.312;2022-08-19T05:58:15;18.60;99.90
31729;DHT22;18309;43.658;1.312;2022-08-19T06:00:43;18.60;99.90
31729;DHT22;18309;43.658;1.312;2022-08-19T06:03:09;18.60;99.90
31729;DHT22;18309;43.658;1.312;2022-08-19T06:05:35;18.50;99.90
31729;DHT22;18309;43.658;1.312;2022-08-19T06:08:01;18.50;99.90
31729;DHT22;18309;43.658;1.312;2022-08-19T06:10:27;18.50;99.90
31729;DHT22;18309;43.658;1.312;2022-08-19T06:12:53;18.50;99.90
31729;DHT22;18309;43.658;1.312;2022-08-19T06:15:19;18.50;99.90
31729;DHT22;18309;43.658;1.312;2022-08-19T06:17:45;18.50;99.90
31729;DHT22;18309;43.658;1.312;2022-08-19T06:20:14;18.50;99.90
31729;DHT22;18309;43.658;1.312;2022-08-19T06:22:45;18.50;99.90
31729;DHT22;18309;43.658;1.312;2022-08-19T06:25:13;18.50;99.90
31729;DHT22;18309;43.658;1.312;2022-08-19T06:27:40;18.50;99.90
31729;DHT22;18309;43.658;1.312;2022-08-19T06:30:06;18.60;99.90
31729;DHT22;18309;43.658;1.312;2022-08-19T06:32:32;18.60;99.90
31729;DHT22;18309;43.658;1.312;2022-08-19T06:34:58;18.60;99.90
31729;DHT22;18309;43.658;1.312;2022-08-19T06:37:24;18.60;99.90
31729;DHT22;18309;43.658;1.312;2022-08-19T06:39:50;18.60;99.90
31729;DHT22;18309;43.658;1.312;2022-08-19T06:42:16;18.60;99.90
31729;DHT22;18309;43.658;1.312;2022-08-19T06:44:46;18.60;99.90
31729;DHT22;18309;43.658;1.312;2022-08-19T06:47:18;18.70;99.90
31729;DHT22;18309;43.658;1.312;2022-08-19T06:49:45;18.70;99.90
31729;DHT22;18309;43.658;1.312;2022-08-19T06:52:11;18.70;99.90
31729;DHT22;18309;43.658;1.312;2022-08-19T06:54:38;18.70;99.90
31729;DHT22;18309;43.658;1.312;2022-08-19T06:57:06;18.70;99.90
31729;DHT22;18309;43.658;1.312;2022-08-19T06:59:32;18.80;99.90
31729;DHT22;18309;43.658;1.312;2022-08-19T07:02:00;18.80;99.90
31729;DHT22;18309;43.658;1.312;2022-08-19T07:04:29;18.80;99.90
31729;DHT22;18309;43.658;1.312;2022-08-19T07:07:03;18.90;99.90
31729;DHT22;18309;43.658;1.312;2022-08-19T07:09:31;18.90;99.90
31729;DHT22;18309;43.658;1.312;2022-08-19T07:11:57;18.90;99.90
31729;DHT22;18309;43.658;1.312;2022-08-19T07:14:25;18.90;99.90
31729;DHT22;18309;43.658;1.312;2022-08-19T07:16:53;19.00;99.90
31729;DHT22;18309;43.658;1.312;2022-08-19T07:19:21;19.00;99.90
31729;DHT22;18309;43.658;1.312;2022-08-19T07:21:49;19.00;99.90
31729;DHT22;18309;43.658;1.312;2022-08-19T07:24:16;19.10;99.90
31729;DHT22;18309;43.658;1.312;2022-08-19T07:26:43;19.10;99.90
31729;DHT22;18309;43.658;1.312;2022-08-19T07:29:10;19.10;99.90
31729;DHT22;18309;43.658;1.312;2022-08-19T07:31:36;19.20;99.90
31729;DHT22;18309;43.658;1.312;2022-08-19T07:34:04;19.10;99.90
31729;DHT22;18309;43.658;1.312;2022-08-19T07:36:36;19.20;99.90
31729;DHT22;18309;43.658;1.312;2022-08-19T07:39:07;19.30;99.90
31729;DHT22;18309;43.658;1.312;2022-08-19T07:41:34;19.30;99.90
31729;DHT22;18309;43.658;1.312;2022-08-19T07:44:03;19.30;99.90
31729;DHT22;18309;43.658;1.312;2022-08-19T07:46:34;19.30;99.90
31729;DHT22;18309;43.658;1.312;2022-08-19T07:49:01;19.40;99.90
31729;DHT22;18309;43.658;1.312;2022-08-19T07:51:28;19.40;99.90
31729;DHT22;18309;43.658;1.312;2022-08-19T07:53:54;19.40;99.90
31729;DHT22;18309;43.658;1.312;2022-08-19T07:56:20;19.50;99.90
31729;DHT22;18309;43.658;1.312;2022-08-19T07:58:47;19.50;99.90
31729;DHT22;18309;43.658;1.312;2022-08-19T08:01:18;19.50;99.90
31729;DHT22;18309;43.658;1.312;2022-08-19T08:03:45;19.60;99.90
31729;DHT22;18309;43.658;1.312;2022-08-19T08:06:29;19.60;99.90
31729;DHT22;18309;43.658;1.312;2022-08-19T08:09:15;19.60;99.90
31729;DHT22;18309;43.658;1.312;2022-08-19T08:11:55;19.70;99.90
31729;DHT22;18309;43.658;1.312;2022-08-19T08:14:31;19.70;99.90
31729;DHT22;18309;43.658;1.312;2022-08-19T08:16:58;19.70;99.90
31729;DHT22;18309;43.658;1.312;2022-08-19T08:19:26;19.70;99.90
31729;DHT22;18309;43.658;1.312;2022-08-19T08:21:58;19.80;99.90
31729;DHT22;18309;43.658;1.312;2022-08-19T08:24:29;19.80;99.90
31729;DHT22;18309;43.658;1.312;2022-08-19T08:26:56;19.80;99.90
31729;DHT22;18309;43.658;1.312;2022-08-19T08:29:23;19.90;99.90
31729;DHT22;18309;43.658;1.312;2022-08-19T08:31:48;19.90;99.90
31729;DHT22;18309;43.658;1.312;2022-08-19T08:34:14;20.00;99.90
31729;DHT22;18309;43.658;1.312;2022-08-19T08:36:43;20.00;99.90
31729;DHT22;18309;43.658;1.312;2022-08-19T08:39:18;20.00;99.90
31729;DHT22;18309;43.658;1.312;2022-08-19T08:42:15;20.10;99.90
31729;DHT22;18309;43.658;1.312;2022-08-19T08:44:58;20.20;99.90
31729;DHT22;18309;43.658;1.312;2022-08-19T08:47:25;20.20;99.90
31729;DHT22;18309;43.658;1.312;2022-08-19T08:49:56;20.30;99.90
31729;DHT22;18309;43.658;1.312;2022-08-19T08:52:25;20.30;99.90
31729;DHT22;18309;43.658;1.312;2022-08-19T08:54:57;20.30;99.90
31729;DHT22;18309;43.658;1.312;2022-08-19T08:57:42;20.40;99.90
31729;DHT22;18309;43.658;1.312;2022-08-19T09:00:15;20.40;99.90
31729;DHT22;18309;43.658;1.312;2022-08-19T09:02:43;20.40;99.90
31729;DHT22;18309;43.658;1.312;2022-08-19T09:05:09;20.40;99.90
31729;DHT22;18309;43.658;1.312;2022-08-19T09:12:54;20.50;99.90
31729;DHT22;18309;43.658;1.312;2022-08-19T09:15:28;20.60;99.90
31729;DHT22;18309;43.658;1.312;2022-08-19T09:17:59;20.60;99.90
31729;DHT22;18309;43.658;1.312;2022-08-19T09:20:27;20.60;99.90
31729;DHT22;18309;43.658;1.312;2022-08-19T09:22:53;20.60;99.90
31729;DHT22;18309;43.658;1.312;2022-08-19T09:25:21;20.60;99.90
31729;DHT22;18309;43.658;1.312;2022-08-19T09:27:48;20.70;99.90
31729;DHT22;18309;43.658;1.312;2022-08-19T09:30:19;20.70;99.90
31729;DHT22;18309;43.658;1.312;2022-08-19T09:32:47;20.70;99.90
31729;DHT22;18309;43.658;1.312;2022-08-19T09:35:14;20.70;99.90
31729;DHT22;18309;43.658;1.312;2022-08-19T09:37:41;20.70;99.90
31729;DHT22;18309;43.658;1.312;2022-08-19T09:40:08;20.70;99.90
31729;DHT22;18309;43.658;1.312;2022-08-19T09:42:34;20.80;99.90
31729;DHT22;18309;43.658;1.312;2022-08-19T09:45:00;20.80;99.90
31729;DHT22;18309;43.658;1.312;2022-08-19T09:47:25;20.80;99.90
31729;DHT22;18309;43.658;1.312;2022-08-19T09:49:51;20.90;99.90
31729;DHT22;18309;43.658;1.312;2022-08-19T09:52:17;20.90;99.90
31729;DHT22;18309;43.658;1.312;2022-08-19T09:54:43;20.90;99.90
31729;DHT22;18309;43.658;1.312;2022-08-19T09:57:09;20.90;99.90
31729;DHT22;18309;43.658;1.312;2022-08-19T09:59:34;20.90;99.90
31729;DHT22;18309;43.658;1.312;2022-08-19T10:02:00;21.00;99.90
31729;DHT22;18309;43.658;1.312;2022-08-19T10:04:26;21.00;99.90
31729;DHT22;18309;43.658;1.312;2022-08-19T10:07:12;21.10;99.90
31729;DHT22;18309;43.658;1.312;2022-08-19T10:09:38;21.10;99.90
31729;DHT22;18309;43.658;1.312;2022-08-19T10:12:05;21.10;99.90
31729;DHT22;18309;43.658;1.312;2022-08-19T10:14:31;21.10;99.90
31729;DHT22;18309;43.658;1.312;2022-08-19T10:16:57;21.20;99.90
31729;DHT22;18309;43.658;1.312;2022-08-19T10:19:23;21.20;99.90
31729;DHT22;18309;43.658;1.312;2022-08-19T10:21:49;21.20;99.90
31729;DHT22;18309;43.658;1.312;2022-08-19T10:24:15;21.30;99.90
31729;DHT22;18309;43.658;1.312;2022-08-19T10:26:41;21.40;99.90
31729;DHT22;18309;43.658;1.312;2022-08-19T10:29:12;21.40;99.90
31729;DHT22;18309;43.658;1.312;2022-08-19T10:31:41;21.50;99.90
31729;DHT22;18309;43.658;1.312;2022-08-19T10:34:07;21.50;99.90
31729;DHT22;18309;43.658;1.312;2022-08-19T10:36:35;21.60;99.90
31729;DHT22;18309;43.658;1.312;2022-08-19T10:39:04;21.60;99.90
31729;DHT22;18309;43.658;1.312;2022-08-19T10:41:33;21.70;99.90
31729;DHT22;18309;43.658;1.312;2022-08-19T10:44:09;21.80;99.90
31729;DHT22;18309;43.658;1.312;2022-08-19T10:46:39;21.80;99.90
31729;DHT22;18309;43.658;1.312;2022-08-19T10:49:08;21.80;99.90
31729;DHT22;18309;43.658;1.312;2022-08-19T10:51:35;21.80;99.90
31729;DHT22;18309;43.658;1.312;2022-08-19T10:54:20;21.90;99.90
31729;DHT22;18309;43.658;1.312;2022-08-19T10:56:46;21.90;99.90
31729;DHT22;18309;43.658;1.312;2022-08-19T11:01:45;22.00;99.90
31729;DHT22;18309;43.658;1.312;2022-08-19T11:04:12;22.00;99.90
31729;DHT22;18309;43.658;1.312;2022-08-19T11:06:42;22.10;99.90
31729;DHT22;18309;43.658;1.312;2022-08-19T11:09:09;22.20;99.90
31729;DHT22;18309;43.658;1.312;2022-08-19T11:11:36;22.20;99.90
31729;DHT22;18309;43.658;1.312;2022-08-19T11:14:07;22.20;99.90
31729;DHT22;18309;43.658;1.312;2022-08-19T11:16:33;22.30;99.90
31729;DHT22;18309;43.658;1.312;2022-08-19T11:18:59;22.30;99.90
31729;DHT22;18309;43.658;1.312;2022-08-19T11:21:34;22.40;99.90
31729;DHT22;18309;43.658;1.312;2022-08-19T11:24:04;22.40;99.90
31729;DHT22;18309;43.658;1.312;2022-08-19T11:26:32;22.40;99.90
31729;DHT22;18309;43.658;1.312;2022-08-19T11:28:59;22.50;99.90
31729;DHT22;18309;43.658;1.312;2022-08-19T11:31:31;22.50;99.90
31729;DHT22;18309;43.658;1.312;2022-08-19T11:33:59;22.60;99.90
31729;DHT22;18309;43.658;1.312;2022-08-19T11:36:25;22.60;99.90
31729;DHT22;18309;43.658;1.312;2022-08-19T11:38:52;22.60;99.90
31729;DHT22;18309;43.658;1.312;2022-08-19T11:41:21;22.60;99.90
31729;DHT22;18309;43.658;1.312;2022-08-19T11:43:48;22.70;99.90
31729;DHT22;18309;43.658;1.312;2022-08-19T11:46:15;22.80;99.90
31729;DHT22;18309;43.658;1.312;2022-08-19T11:48:42;22.80;99.90
31729;DHT22;18309;43.658;1.312;2022-08-19T11:51:10;22.90;99.90
31729;DHT22;18309;43.658;1.312;2022-08-19T11:53:37;23.00;99.90
31729;DHT22;18309;43.658;1.312;2022-08-19T11:56:05;22.90;99.90
31729;DHT22;18309;43.658;1.312;2022-08-19T11:58:31;23.00;99.90
31729;DHT22;18309;43.658;1.312;2022-08-19T12:00:56;23.00;99.90
31729;DHT22;18309;43.658;1.312;2022-08-19T12:03:22;23.00;99.90
31729;DHT22;18309;43.658;1.312;2022-08-19T12:05:48;23.10;99.90
31729;DHT22;18309;43.658;1.312;2022-08-19T12:08:15;23.10;99.90
31729;DHT22;18309;43.658;1.312;2022-08-19T12:10:41;23.20;99.90
31729;DHT22;18309;43.658;1.312;2022-08-19T12:13:09;23.20;99.80
31729;DHT22;18309;43.658;1.312;2022-08-19T12:15:39;23.20;99.60
31729;DHT22;18309;43.658;1.312;2022-08-19T12:18:08;23.30;99.70
31729;DHT22;18309;43.658;1.312;2022-08-19T12:20:36;23.30;99.40
31729;DHT22;18309;43.658;1.312;2022-08-19T12:23:03;23.40;99.50
31729;DHT22;18309;43.658;1.312;2022-08-19T12:25:29;23.30;98.80
31729;DHT22;18309;43.658;1.312;2022-08-19T12:27:56;23.40;98.60
31729;DHT22;18309;43.658;1.312;2022-08-19T12:30:22;23.40;98.30
31729;DHT22;18309;43.658;1.312;2022-08-19T12:32:47;23.50;98.20
31729;DHT22;18309;43.658;1.312;2022-08-19T12:35:13;23.60;98.10
31729;DHT22;18309;43.658;1.312;2022-08-19T12:37:39;23.70;98.20
31729;DHT22;18309;43.658;1.312;2022-08-19T12:40:10;23.70;97.70
31729;DHT22;18309;43.658;1.312;2022-08-19T12:42:38;23.70;97.50
31729;DHT22;18309;43.658;1.312;2022-08-19T12:45:11;23.70;97.90
31729;DHT22;18309;43.658;1.312;2022-08-19T12:47:38;23.90;98.00
31729;DHT22;18309;43.658;1.312;2022-08-19T12:50:05;23.90;97.60
31729;DHT22;18309;43.658;1.312;2022-08-19T12:52:35;24.00;97.30
31729;DHT22;18309;43.658;1.312;2022-08-19T12:55:04;24.00;97.00
31729;DHT22;18309;43.658;1.312;2022-08-19T12:57:30;24.00;97.40
31729;DHT22;18309;43.658;1.312;2022-08-19T12:59:59;24.10;96.70
31729;DHT22;18309;43.658;1.312;2022-08-19T13:02:25;24.20;96.30
31729;DHT22;18309;43.658;1.312;2022-08-19T13:04:51;24.30;96.20
31729;DHT22;18309;43.658;1.312;2022-08-19T13:07:17;24.30;96.10
31729;DHT22;18309;43.658;1.312;2022-08-19T13:09:43;24.30;95.70
31729;DHT22;18309;43.658;1.312;2022-08-19T13:12:08;24.40;95.30
31729;DHT22;18309;43.658;1.312;2022-08-19T13:14:39;24.40;95.40
31729;DHT22;18309;43.658;1.312;2022-08-19T13:17:06;24.40;95.50
31729;DHT22;18309;43.658;1.312;2022-08-19T13:19:32;24.40;95.40
31729;DHT22;18309;43.658;1.312;2022-08-19T13:21:58;24.50;95.20
31729;DHT22;18309;43.658;1.312;2022-08-19T13:24:24;24.60;95.20
31729;DHT22;18309;43.658;1.312;2022-08-19T13:26:50;24.70;94.20
31729;DHT22;18309;43.658;1.312;2022-08-19T13:29:16;24.80;94.10
31729;DHT22;18309;43.658;1.312;2022-08-19T13:32:00;24.80;94.10
31729;DHT22;18309;43.658;1.312;2022-08-19T13:34:44;24.80;94.00
31729;DHT22;18309;43.658;1.312;2022-08-19T13:37:12;25.00;93.80
31729;DHT22;18309;43.658;1.312;2022-08-19T13:39:37;24.90;93.90
31729;DHT22;18309;43.658;1.312;2022-08-19T13:42:03;24.90;94.00
31729;DHT22;18309;43.658;1.312;2022-08-19T13:44:30;24.90;94.00
31729;DHT22;18309;43.658;1.312;2022-08-19T13:47:04;25.00;94.40
31729;DHT22;18309;43.658;1.312;2022-08-19T13:49:35;25.10;93.70
31729;DHT22;18309;43.658;1.312;2022-08-19T13:52:02;25.20;93.30
31729;DHT22;18309;43.658;1.312;2022-08-19T13:54:28;25.20;93.10
31729;DHT22;18309;43.658;1.312;2022-08-19T13:56:54;25.30;93.20
31729;DHT22;18309;43.658;1.312;2022-08-19T13:59:19;25.30;93.10
31729;DHT22;18309;43.658;1.312;2022-08-19T14:01:45;25.30;92.90
31729;DHT22;18309;43.658;1.312;2022-08-19T14:04:11;25.30;92.50
31729;DHT22;18309;43.658;1.312;2022-08-19T14:06:36;25.30;92.60
31729;DHT22;18309;43.658;1.312;2022-08-19T14:09:02;25.40;92.60
31729;DHT22;18309;43.658;1.312;2022-08-19T14:11:29;25.50;92.80
31729;DHT22;18309;43.658;1.312;2022-08-19T14:13:55;25.60;92.30
31729;DHT22;18309;43.658;1.312;2022-08-19T14:16:20;25.70;92.10
31729;DHT22;18309;43.658;1.312;2022-08-19T14:18:47;25.90;92.00
31729;DHT22;18309;43.658;1.312;2022-08-19T14:21:19;25.90;91.70
31729;DHT22;18309;43.658;1.312;2022-08-19T14:23:46;26.00;91.30
31729;DHT22;18309;43.658;1.312;2022-08-19T14:26:15;26.10;91.60
31729;DHT22;18309;43.658;1.312;2022-08-19T14:28:41;26.20;91.80
31729;DHT22;18309;43.658;1.312;2022-08-19T14:31:12;26.30;91.80
31729;DHT22;18309;43.658;1.312;2022-08-19T14:33:38;26.50;91.10
31729;DHT22;18309;43.658;1.312;2022-08-19T14:36:04;26.70;90.50
31729;DHT22;18309;43.658;1.312;2022-08-19T14:38:30;26.80;90.20
31729;DHT22;18309;43.658;1.312;2022-08-19T14:41:09;27.00;89.60
31729;DHT22;18309;43.658;1.312;2022-08-19T14:43:35;27.10;89.30
31729;DHT22;18309;43.658;1.312;2022-08-19T14:46:01;27.20;89.90
31729;DHT22;18309;43.658;1.312;2022-08-19T14:48:27;27.30;89.80
31729;DHT22;18309;43.658;1.312;2022-08-19T14:50:52;27.40;90.10
31729;DHT22;18309;43.658;1.312;2022-08-19T14:53:18;27.60;89.60
31729;DHT22;18309;43.658;1.312;2022-08-19T14:55:45;27.80;87.50
31729;DHT22;18309;43.658;1.312;2022-08-19T14:58:12;28.00;86.20
31729;DHT22;18309;43.658;1.312;2022-08-19T15:00:37;28.30;85.50
31729;DHT22;18309;43.658;1.312;2022-08-19T15:03:03;28.40;85.70
31729;DHT22;18309;43.658;1.312;2022-08-19T15:05:29;28.50;85.90
31729;DHT22;18309;43.658;1.312;2022-08-19T15:07:55;28.70;83.30
31729;DHT22;18309;43.658;1.312;2022-08-19T15:10:22;28.80;84.10
31729;DHT22;18309;43.658;1.312;2022-08-19T15:12:50;28.90;82.40
31729;DHT22;18309;43.658;1.312;2022-08-19T15:15:15;29.00;82.20
31729;DHT22;18309;43.658;1.312;2022-08-19T15:17:43;29.00;81.40
31729;DHT22;18309;43.658;1.312;2022-08-19T15:20:11;29.00;81.70
31729;DHT22;18309;43.658;1.312;2022-08-19T15:22:38;29.10;82.30
31729;DHT22;18309;43.658;1.312;2022-08-19T15:25:08;29.10;82.10
31729;DHT22;18309;43.658;1.312;2022-08-19T15:27:33;29.10;81.30
31729;DHT22;18309;43.658;1.312;2022-08-19T15:30:00;29.10;80.90
31729;DHT22;18309;43.658;1.312;2022-08-19T15:32:25;29.00;81.00
31729;DHT22;18309;43.658;1.312;2022-08-19T15:34:53;29.00;80.90
31729;DHT22;18309;43.658;1.312;2022-08-19T15:37:19;29.00;81.00
31729;DHT22;18309;43.658;1.312;2022-08-19T15:39:49;28.90;80.80
31729;DHT22;18309;43.658;1.312;2022-08-19T15:42:15;28.90;81.40
31729;DHT22;18309;43.658;1.312;2022-08-19T15:44:40;28.90;80.40
31729;DHT22;18309;43.658;1.312;2022-08-19T15:47:06;28.80;80.20